createdAt,value
2023-02-23T00:01:56.024Z,93518.38
2023-02-23T00:04:23.702Z,93504.31
2023-02-23T00:06:52.261Z,93511.97
2023-02-23T00:09:24.916Z,93499.13
2023-02-23T00:11:53.168Z,93478.66
2023-02-23T00:14:19.659Z,93499.88
2023-02-23T00:16:46.348Z,93507.13
2023-02-23T00:19:14.070Z,93480.97
2023-02-23T00:21:41.557Z,93502.25
2023-02-23T00:24:10.208Z,93492.19
2023-02-23T00:26:39.325Z,93499.88
2023-02-23T00:29:08.741Z,93493.50
2023-02-23T00:31:35.393Z,93478.53
2023-02-23T00:34:03.598Z,93498.91
2023-02-23T00:36:35.129Z,93476.88
2023-02-23T00:39:18.845Z,93489.19
2023-02-23T00:41:46.662Z,93480.50
2023-02-23T00:44:16.970Z,93504.44
2023-02-23T00:46:45.195Z,93522.03
2023-02-23T00:49:13.348Z,93522.63
2023-02-23T00:51:39.757Z,93509.78
2023-02-23T00:54:07.230Z,93512.84
2023-02-23T00:56:33.964Z,93513.53
2023-02-23T00:59:01.398Z,93498.44
2023-02-23T01:01:27.904Z,93480.72
2023-02-23T01:03:54.533Z,93504.19
2023-02-23T01:06:20.984Z,93515.31
2023-02-23T01:08:50.114Z,93504.50
2023-02-23T01:11:21.200Z,93494.09
2023-02-23T01:13:48.929Z,93513.69
2023-02-23T01:16:17.948Z,93512.00
2023-02-23T01:18:45.600Z,93519.97
2023-02-23T01:21:27.907Z,93507.94
2023-02-23T01:23:55.250Z,93509.63
2023-02-23T01:26:24.714Z,93505.19
2023-02-23T01:28:56.488Z,93509.09
2023-02-23T01:31:25.280Z,93508.00
2023-02-23T01:33:59.997Z,93488.25
2023-02-23T01:36:33.366Z,93506.28
2023-02-23T01:39:00.101Z,93492.25
2023-02-23T01:41:29.780Z,93485.75
2023-02-23T01:43:57.463Z,93501.94
2023-02-23T01:46:23.843Z,93499.03
2023-02-23T01:48:56.279Z,93492.63
2023-02-23T01:51:27.598Z,93492.25
2023-02-23T01:54:18.641Z,93499.03
2023-02-23T01:56:57.888Z,93481.75
2023-02-23T01:59:34.170Z,93496.06
2023-02-23T02:02:00.941Z,93491.72
2023-02-23T02:04:32.384Z,93467.38
2023-02-23T02:07:01.438Z,93474.94
2023-02-23T02:09:28.406Z,93464.63
2023-02-23T02:11:54.794Z,93435.63
2023-02-23T02:14:27.324Z,93477.91
2023-02-23T02:17:20.845Z,93500.44
2023-02-23T02:19:59.476Z,93492.63
2023-02-23T02:22:36.586Z,93493.75
2023-02-23T02:25:31.642Z,93496.13
2023-02-23T02:28:08.793Z,93494.69
2023-02-23T02:31:04.101Z,93494.25
2023-02-23T02:33:52.328Z,93490.91
2023-02-23T02:36:43.526Z,93480.03
2023-02-23T02:39:38.040Z,93481.50
2023-02-23T02:42:29.897Z,93457.06
2023-02-23T02:45:17.569Z,93441.34
2023-02-23T02:47:58.331Z,93478.28
2023-02-23T02:50:31.293Z,93479.81
2023-02-23T02:53:07.078Z,93486.59
2023-02-23T02:55:37.105Z,93459.72
2023-02-23T02:58:07.932Z,93465.09
2023-02-23T03:00:58.821Z,93480.78
2023-02-23T03:04:02.567Z,93459.81
2023-02-23T03:06:52.842Z,93464.53
2023-02-23T03:09:40.829Z,93484.88
2023-02-23T03:12:53.891Z,93458.06
2023-02-23T03:16:02.526Z,93478.06
2023-02-23T03:19:06.602Z,93491.94
2023-02-23T03:22:17.388Z,93492.31
2023-02-23T03:25:18.914Z,93486.31
2023-02-23T03:28:23.062Z,93475.38
2023-02-23T03:31:28.879Z,93454.69
2023-02-23T03:34:29.048Z,93486.25
2023-02-23T03:37:35.296Z,93490.72
2023-02-23T03:40:50.996Z,93492.81
2023-02-23T03:43:45.497Z,93478.09
2023-02-23T03:46:33.115Z,93494.28
2023-02-23T03:49:21.977Z,93468.69
2023-02-23T03:52:15.263Z,93491.09
2023-02-23T03:55:12.152Z,93490.25
2023-02-23T03:57:59.880Z,93472.66
2023-02-23T04:00:53.117Z,93475.06
2023-02-23T04:03:39.584Z,93482.28
2023-02-23T04:06:29.786Z,93486.63
2023-02-23T04:09:18.110Z,93475.25
2023-02-23T04:12:13.085Z,93488.63
2023-02-23T04:14:52.537Z,93474.28
2023-02-23T04:17:20.181Z,93479.53
2023-02-23T04:19:51.462Z,93486.38
2023-02-23T04:22:17.932Z,93483.16
2023-02-23T04:24:46.112Z,93494.63
2023-02-23T04:27:13.856Z,93485.19
2023-02-23T04:29:40.973Z,93471.88
2023-02-23T04:32:10.871Z,93472.75
2023-02-23T04:34:37.289Z,93473.50
2023-02-23T04:37:03.751Z,93487.63
2023-02-23T04:39:30.284Z,93480.47
2023-02-23T04:41:56.657Z,93482.88
2023-02-23T04:44:23.039Z,93475.84
2023-02-23T04:46:49.415Z,93473.59
2023-02-23T04:49:15.856Z,93500.47
2023-02-23T04:51:42.256Z,93469.28
2023-02-23T04:54:09.323Z,93491.94
2023-02-23T04:56:35.888Z,93477.84
2023-02-23T04:59:02.376Z,93489.81
2023-02-23T05:01:29.373Z,93485.63
2023-02-23T05:03:55.855Z,93478.94
2023-02-23T05:06:22.257Z,93454.09
2023-02-23T05:08:48.691Z,93477.72
2023-02-23T05:11:16.138Z,93458.06
2023-02-23T05:13:42.601Z,93493.81
2023-02-23T05:16:09.332Z,93475.25
2023-02-23T05:18:35.787Z,93464.84
2023-02-23T05:21:04.571Z,93476.25
2023-02-23T05:23:31.217Z,93473.03
2023-02-23T05:26:09.393Z,93483.66
2023-02-23T05:28:39.722Z,93487.38
2023-02-23T05:31:06.864Z,93481.25
2023-02-23T05:33:34.068Z,93489.09
2023-02-23T05:36:05.616Z,93480.19
2023-02-23T05:38:31.987Z,93466.47
2023-02-23T05:40:58.342Z,93471.16
2023-02-23T05:43:24.802Z,93487.25
2023-02-23T05:45:51.220Z,93479.59
2023-02-23T05:48:17.604Z,93485.56
2023-02-23T05:50:43.972Z,93458.28
2023-02-23T05:53:10.789Z,93453.94
2023-02-23T05:55:37.519Z,93460.91
2023-02-23T05:58:04.005Z,93477.72
2023-02-23T06:00:30.580Z,93476.13
2023-02-23T06:02:57.023Z,93483.28
2023-02-23T06:05:23.436Z,93468.47
2023-02-23T06:07:50.006Z,93473.72
2023-02-23T06:10:16.787Z,93491.34
2023-02-23T06:12:43.180Z,93482.47
2023-02-23T06:15:09.983Z,93496.91
2023-02-23T06:17:36.501Z,93492.19
2023-02-23T06:20:04.930Z,93503.19
2023-02-23T06:22:32.469Z,93484.53
2023-02-23T06:24:58.878Z,93502.22
2023-02-23T06:27:26.186Z,93486.25
2023-02-23T06:29:52.567Z,93466.94
2023-02-23T06:32:19.033Z,93498.38
2023-02-23T06:34:45.491Z,93487.97
2023-02-23T06:37:12.043Z,93489.88
2023-02-23T06:39:38.535Z,93510.81
2023-02-23T06:42:08.013Z,93503.56
2023-02-23T06:44:35.675Z,93498.88
2023-02-23T06:47:05.625Z,93526.41
2023-02-23T06:49:32.553Z,93522.00
2023-02-23T06:51:59.075Z,93499.50
2023-02-23T06:54:26.369Z,93516.75
2023-02-23T06:56:53.224Z,93521.91
2023-02-23T06:59:19.756Z,93508.50
2023-02-23T07:01:46.166Z,93520.22
2023-02-23T07:04:14.858Z,93510.13
2023-02-23T07:06:42.738Z,93518.19
2023-02-23T07:09:09.163Z,93512.97
2023-02-23T07:11:35.568Z,93536.34
2023-02-23T07:14:02.068Z,93540.38
2023-02-23T07:16:29.535Z,93542.38
2023-02-23T07:18:56.314Z,93541.31
2023-02-23T07:21:23.000Z,93529.56
2023-02-23T07:23:49.861Z,93537.59
2023-02-23T07:26:18.477Z,93528.78
2023-02-23T07:28:44.918Z,93529.94
2023-02-23T07:31:11.454Z,93516.56
2023-02-23T07:33:37.975Z,93524.22
2023-02-23T07:36:04.714Z,93530.78
2023-02-23T07:38:31.265Z,93520.38
2023-02-23T07:40:57.651Z,93522.00
2023-02-23T07:43:24.210Z,93533.25
2023-02-23T07:45:51.659Z,93545.28
2023-02-23T07:48:19.023Z,93523.25
2023-02-23T07:50:45.585Z,93532.03
2023-02-23T07:53:15.166Z,93545.59
2023-02-23T07:55:41.696Z,93522.16
2023-02-23T07:58:09.774Z,93551.41
2023-02-23T08:00:39.995Z,93519.56
2023-02-23T08:03:07.503Z,93520.50
2023-02-23T08:05:33.945Z,93531.41
2023-02-23T08:08:01.300Z,93524.53
2023-02-23T08:10:27.727Z,93544.88
2023-02-23T08:12:54.254Z,93526.56
2023-02-23T08:15:21.098Z,93540.06
2023-02-23T08:17:47.502Z,93529.38
2023-02-23T08:20:13.980Z,93552.75
2023-02-23T08:22:49.374Z,93515.22
2023-02-23T08:25:17.252Z,93539.31
2023-02-23T08:27:43.640Z,93530.50
2023-02-23T08:30:10.744Z,93525.91
2023-02-23T08:32:37.323Z,93536.66
2023-02-23T08:35:05.452Z,93529.56
2023-02-23T08:37:32.085Z,93534.13
2023-02-23T08:39:59.194Z,93523.59
2023-02-23T08:42:25.598Z,93538.50
2023-02-23T08:44:54.100Z,93534.94
2023-02-23T08:47:21.942Z,93548.97
2023-02-23T08:49:48.943Z,93522.97
2023-02-23T08:52:15.504Z,93513.31
2023-02-23T08:54:48.370Z,93515.50
2023-02-23T08:57:14.862Z,93528.38
2023-02-23T08:59:44.376Z,93518.25
2023-02-23T09:02:12.933Z,93532.72
2023-02-23T09:04:41.859Z,93548.59
2023-02-23T09:07:13.047Z,93552.66
2023-02-23T09:09:39.648Z,93523.41
2023-02-23T09:12:10.199Z,93535.91
2023-02-23T09:19:56.733Z,93552.28
2023-02-23T09:22:24.250Z,93554.31
2023-02-23T09:24:50.599Z,93513.59
2023-02-23T09:27:17.016Z,93549.34
2023-02-23T09:29:44.395Z,93540.16
2023-02-23T09:32:12.325Z,93541.09
2023-02-23T09:34:38.773Z,93538.69
2023-02-23T09:37:05.313Z,93538.72
2023-02-23T09:39:38.135Z,93537.53
2023-02-23T09:42:25.642Z,93558.84
2023-02-23T09:45:03.762Z,93566.63
2023-02-23T09:47:41.520Z,93564.03
2023-02-23T09:50:22.623Z,93568.84
2023-02-23T09:52:57.508Z,93571.31
2023-02-23T09:55:25.498Z,93575.81
2023-02-23T09:57:52.509Z,93570.22
2023-02-23T10:00:27.449Z,93578.66
2023-02-23T10:03:31.337Z,93570.66
2023-02-23T10:06:06.365Z,93563.88
2023-02-23T10:08:50.040Z,93569.94
2023-02-23T10:11:45.764Z,93573.16
2023-02-23T10:15:02.215Z,93567.56
2023-02-23T10:17:41.869Z,93563.13
2023-02-23T10:20:35.042Z,93571.97
2023-02-23T10:23:06.795Z,93571.97
2023-02-23T10:25:38.073Z,93547.06
2023-02-23T10:28:04.696Z,93553.91
2023-02-23T10:30:33.625Z,93566.72
2023-02-23T10:33:07.345Z,93557.28
2023-02-23T10:35:34.278Z,93559.91
2023-02-23T10:38:02.077Z,93555.88
2023-02-23T10:40:32.947Z,93535.81
2023-02-23T10:43:03.494Z,93567.53
2023-02-23T10:45:38.111Z,93550.22
2023-02-23T10:48:06.383Z,93561.50
2023-02-23T10:50:36.199Z,93544.63
2023-02-23T10:53:18.494Z,93550.63
2023-02-23T10:55:47.374Z,93552.59
2023-02-23T10:58:19.909Z,93553.34
2023-02-23T11:00:57.009Z,93545.25
2023-02-23T11:03:35.575Z,93516.25
2023-02-23T11:06:02.313Z,93543.22
2023-02-23T11:08:35.991Z,93541.63
2023-02-23T11:11:25.327Z,93520.13
2023-02-23T11:13:52.262Z,93511.75
2023-02-23T11:16:22.391Z,93545.47
2023-02-23T11:18:51.145Z,93524.94
2023-02-23T11:21:23.250Z,93533.66
2023-02-23T11:23:53.506Z,93527.97
2023-02-23T11:26:28.449Z,93498.66
2023-02-23T11:28:59.691Z,93499.50
2023-02-23T11:31:34.861Z,93497.28
2023-02-23T11:34:04.682Z,93489.69
2023-02-23T11:36:34.442Z,93506.84
2023-02-23T11:39:23.433Z,93500.44
2023-02-23T11:42:05.267Z,93499.31
2023-02-23T11:44:33.600Z,93491.72
2023-02-23T11:47:01.226Z,93470.72
2023-02-23T11:49:36.084Z,93488.78
2023-02-23T11:52:03.175Z,93477.69
2023-02-23T11:54:35.758Z,93493.59
2023-02-23T11:57:02.748Z,93481.78
2023-02-23T11:59:35.510Z,93454.66
2023-02-23T12:02:23.053Z,93481.66
2023-02-23T12:04:53.138Z,93466.16
2023-02-23T12:07:42.995Z,93466.69
2023-02-23T12:10:30.883Z,93476.25
2023-02-23T12:13:08.517Z,93471.75
2023-02-23T12:15:46.865Z,93454.25
2023-02-23T12:18:45.185Z,93458.97
2023-02-23T12:21:33.259Z,93457.44
2023-02-23T12:24:22.985Z,93451.00
2023-02-23T12:26:56.762Z,93452.50
2023-02-23T12:29:41.816Z,93446.31
2023-02-23T12:32:34.035Z,93439.41
2023-02-23T12:35:14.984Z,93445.53
2023-02-23T12:38:06.616Z,93452.66
2023-02-23T12:40:37.349Z,93436.41
2023-02-23T12:43:22.631Z,93444.84
2023-02-23T12:45:53.354Z,93450.22
2023-02-23T12:48:37.892Z,93442.78
2023-02-23T12:51:22.710Z,93431.41
2023-02-23T12:53:49.201Z,93450.38
2023-02-23T12:56:33.308Z,93449.38
2023-02-23T12:59:11.094Z,93443.44
2023-02-23T13:02:12.010Z,93433.31
2023-02-23T13:04:57.839Z,93421.66
2023-02-23T13:07:35.173Z,93441.88
2023-02-23T13:10:13.842Z,93437.94
2023-02-23T13:12:49.376Z,93420.38
2023-02-23T13:15:42.528Z,93438.19
2023-02-23T13:18:23.931Z,93428.22
2023-02-23T13:21:03.705Z,93435.81
2023-02-23T13:23:47.214Z,93414.06
2023-02-23T13:26:34.276Z,93439.91
2023-02-23T13:29:09.015Z,93435.00
2023-02-23T13:31:38.092Z,93436.22
2023-02-23T13:34:10.107Z,93418.13
2023-02-23T13:36:37.126Z,93416.44
2023-02-23T13:40:00.691Z,93430.84
2023-02-23T13:42:34.369Z,93423.00
2023-02-23T13:45:31.392Z,93421.72
2023-02-23T13:48:19.051Z,93422.72
2023-02-23T13:51:08.771Z,93413.81
2023-02-23T13:53:46.823Z,93419.69
2023-02-23T13:56:24.954Z,93401.06
2023-02-23T13:58:53.155Z,93397.53
2023-02-23T14:01:29.564Z,93411.38
2023-02-23T14:03:59.262Z,93421.47
2023-02-23T14:06:28.835Z,93416.31
2023-02-23T14:09:07.385Z,93407.41
2023-02-23T14:11:41.140Z,93416.31
2023-02-23T14:14:13.155Z,93386.09
2023-02-23T14:16:39.935Z,93414.91
2023-02-23T14:19:11.242Z,93346.28
2023-02-23T14:21:57.200Z,93414.78
2023-02-23T14:24:25.917Z,93386.00
2023-02-23T14:27:07.129Z,93404.06
2023-02-23T14:29:44.869Z,93412.84
2023-02-23T14:32:11.417Z,93415.66
2023-02-23T14:34:56.901Z,93411.94
2023-02-23T14:37:32.226Z,93388.06
2023-02-23T14:40:16.592Z,93395.78
2023-02-23T14:42:49.488Z,93389.47
2023-02-23T14:45:25.722Z,93401.00
2023-02-23T14:47:55.164Z,93403.56
2023-02-23T14:50:48.146Z,93406.84
2023-02-23T14:53:20.841Z,93400.91
2023-02-23T14:55:48.542Z,93382.00
2023-02-23T14:58:33.510Z,93395.66
2023-02-23T15:00:59.976Z,93393.63
2023-02-23T15:03:26.421Z,93385.03
2023-02-23T15:06:00.582Z,93384.75
2023-02-23T15:08:30.734Z,93380.03
2023-02-23T15:11:10.799Z,93373.47
2023-02-23T15:13:42.148Z,93393.44
2023-02-23T15:16:14.554Z,93397.84
2023-02-23T15:19:30.726Z,93397.84
2023-02-23T15:21:59.225Z,93367.72
2023-02-23T15:24:41.016Z,93399.00
2023-02-23T15:27:16.997Z,93385.34
2023-02-23T15:29:43.418Z,93339.81
2023-02-23T15:32:24.931Z,93395.06
2023-02-23T15:34:53.160Z,93374.41
2023-02-23T15:37:24.092Z,93397.94
2023-02-23T15:39:56.979Z,93378.59
2023-02-23T15:42:35.678Z,93389.66
2023-02-23T15:45:04.908Z,93393.47
2023-02-23T15:47:34.988Z,93364.84
2023-02-23T15:50:14.302Z,93399.28
2023-02-23T15:52:55.161Z,93366.75
2023-02-23T15:55:29.029Z,93381.28
2023-02-23T15:57:58.961Z,93388.16
2023-02-23T16:00:32.718Z,93399.22
2023-02-23T16:03:04.659Z,93388.66
2023-02-23T16:05:45.311Z,93395.66
2023-02-23T16:08:23.285Z,93400.78
2023-02-23T16:11:00.340Z,93382.81
2023-02-23T16:13:28.640Z,93379.59
2023-02-23T16:15:56.167Z,93334.56
2023-02-23T16:18:34.330Z,93375.59
2023-02-23T16:21:01.861Z,93367.97
2023-02-23T16:23:40.321Z,93391.63
2023-02-23T16:26:12.142Z,93356.81
2023-02-23T16:28:43.724Z,93393.69
2023-02-23T16:31:28.306Z,93384.81
2023-02-23T16:33:57.371Z,93397.44
2023-02-23T16:36:35.032Z,93368.44
2023-02-23T16:39:06.112Z,93387.28
2023-02-23T16:41:34.655Z,93369.69
2023-02-23T16:44:05.120Z,93394.56
2023-02-23T16:47:02.859Z,93397.72
2023-02-23T16:49:30.097Z,93395.91
2023-02-23T16:51:58.719Z,93378.13
2023-02-23T16:54:30.937Z,93372.53
2023-02-23T16:57:06.017Z,93385.38
2023-02-23T16:59:34.268Z,93354.47
2023-02-23T17:02:03.777Z,93384.94
2023-02-23T17:04:30.325Z,93385.28
2023-02-23T17:07:00.829Z,93412.13
2023-02-23T17:09:28.453Z,93374.00
2023-02-23T17:11:57.108Z,93395.25
2023-02-23T17:14:28.077Z,93408.25
2023-02-23T17:16:54.755Z,93350.59
2023-02-23T17:19:24.444Z,93367.81
2023-02-23T17:21:52.395Z,93382.66
2023-02-23T17:24:19.081Z,93373.50
2023-02-23T17:26:47.639Z,93388.44
2023-02-23T17:29:15.203Z,93369.59
2023-02-23T17:31:41.917Z,93381.19
2023-02-23T17:34:08.462Z,93367.13
2023-02-23T17:36:34.842Z,93391.75
2023-02-23T17:39:02.406Z,93420.56
2023-02-23T17:41:28.896Z,93391.31
2023-02-23T17:43:55.276Z,93393.16
2023-02-23T17:46:28.189Z,93403.25
2023-02-23T17:48:56.423Z,93404.00
2023-02-23T17:51:23.928Z,93419.41
2023-02-23T17:53:50.620Z,93439.56
2023-02-23T17:56:19.864Z,93423.13
2023-02-23T17:58:50.288Z,93414.56
2023-02-23T18:01:17.793Z,93420.75
2023-02-23T18:03:44.403Z,93416.97
2023-02-23T18:06:12.635Z,93400.00
2023-02-23T18:08:40.796Z,93367.66
2023-02-23T18:11:08.963Z,93441.84
2023-02-23T18:13:37.775Z,93436.38
2023-02-23T18:16:09.753Z,93406.25
2023-02-23T18:18:38.803Z,93427.69
2023-02-23T18:21:11.580Z,93438.66
2023-02-23T18:23:38.169Z,93434.53
2023-02-23T18:26:07.542Z,93421.03
2023-02-23T18:28:35.136Z,93444.41
2023-02-23T18:31:04.024Z,93428.66
2023-02-23T18:33:31.509Z,93410.47
2023-02-23T18:35:58.191Z,93398.44
2023-02-23T18:38:24.571Z,93434.53
2023-02-23T18:40:51.065Z,93429.13
2023-02-23T18:43:17.457Z,93416.94
2023-02-23T18:45:44.909Z,93393.16
2023-02-23T18:48:13.484Z,93419.63
2023-02-23T18:50:41.023Z,93447.88
2023-02-23T18:53:08.930Z,93365.16
2023-02-23T18:55:37.142Z,93434.97
2023-02-23T18:58:05.209Z,93440.16
2023-02-23T19:00:37.017Z,93445.41
2023-02-23T19:03:03.579Z,93435.28
2023-02-23T19:05:31.094Z,93414.00
2023-02-23T19:07:57.619Z,93440.88
2023-02-23T19:10:27.342Z,93360.28
2023-02-23T19:12:59.727Z,93426.69
2023-02-23T19:15:26.315Z,93451.53
2023-02-23T19:17:54.347Z,93442.22
2023-02-23T19:20:23.327Z,93426.44
2023-02-23T19:22:50.763Z,93419.66
2023-02-23T19:25:18.563Z,93428.66
2023-02-23T19:27:45.037Z,93422.84
2023-02-23T19:30:12.245Z,93420.31
2023-02-23T19:32:42.181Z,93412.88
2023-02-23T19:35:10.944Z,93432.09
2023-02-23T19:37:42.031Z,93432.59
2023-02-23T19:40:09.261Z,93422.91
2023-02-23T19:42:36.879Z,93401.97
2023-02-23T19:45:03.751Z,93407.09
2023-02-23T19:47:30.318Z,93443.13
2023-02-23T19:49:56.755Z,93403.94
2023-02-23T19:52:28.949Z,93383.69
2023-02-23T19:54:55.422Z,93423.97
2023-02-23T19:57:25.069Z,93437.69
2023-02-23T19:59:51.470Z,93458.16
2023-02-23T20:02:18.957Z,93446.84
2023-02-23T20:04:49.510Z,93464.84
2023-02-23T20:07:17.265Z,93467.13
2023-02-23T20:09:44.406Z,93383.38
2023-02-23T20:12:10.933Z,93417.56
2023-02-23T20:14:39.665Z,93451.72
2023-02-23T20:17:07.162Z,93424.00
2023-02-23T20:19:33.751Z,93434.63
2023-02-23T20:22:01.199Z,93419.47
2023-02-23T20:24:27.766Z,93445.63
2023-02-23T20:26:58.102Z,93394.84
2023-02-23T20:29:27.993Z,93459.47
2023-02-23T20:31:54.520Z,93478.81
2023-02-23T20:34:24.387Z,93476.91
2023-02-23T20:36:51.438Z,93471.41
2023-02-23T20:39:19.091Z,93461.25
2023-02-23T20:41:53.487Z,93469.31
2023-02-23T20:44:23.290Z,93465.59
2023-02-23T20:46:50.026Z,93456.53
2023-02-23T20:49:19.008Z,93447.81
2023-02-23T20:51:48.572Z,93433.97
2023-02-23T20:54:16.296Z,93466.22
2023-02-23T20:56:43.968Z,93465.28
2023-02-23T20:59:15.492Z,93459.16
2023-02-23T21:01:43.593Z,93463.94
2023-02-23T21:04:13.248Z,93435.53
2023-02-23T21:06:39.954Z,93439.88
2023-02-23T21:09:12.359Z,93416.00
2023-02-23T21:11:38.742Z,93458.78
2023-02-23T21:14:08.337Z,93413.28
2023-02-23T21:16:36.062Z,93458.41
2023-02-23T21:19:05.348Z,93427.44
2023-02-23T21:21:39.988Z,93448.72
2023-02-23T21:24:06.961Z,93426.69
2023-02-23T21:26:33.584Z,93449.63
2023-02-23T21:29:00.102Z,93451.25
2023-02-23T21:31:26.683Z,93429.41
2023-02-23T21:33:53.409Z,93448.28
2023-02-23T21:36:20.133Z,93418.63
2023-02-23T21:38:48.602Z,93403.28
2023-02-23T21:41:15.444Z,93410.56
2023-02-23T21:43:44.532Z,93442.22
2023-02-23T21:46:15.984Z,93414.47
2023-02-23T21:48:43.568Z,93439.25
2023-02-23T21:51:12.939Z,93435.06
2023-02-23T21:53:39.845Z,93408.94
2023-02-23T21:56:11.462Z,93425.09
2023-02-23T21:58:43.435Z,93435.38
2023-02-23T22:01:14.400Z,93439.47
2023-02-23T22:03:44.940Z,93430.16
2023-02-23T22:06:17.612Z,93412.69
2023-02-23T22:08:44.927Z,93434.28
2023-02-23T22:11:24.812Z,93413.63
2023-02-23T22:13:59.715Z,93431.13
2023-02-23T22:16:32.486Z,93431.97
2023-02-23T22:19:03.773Z,93397.78
2023-02-23T22:21:35.087Z,93432.91
2023-02-23T22:24:05.291Z,93417.34
2023-02-23T22:26:34.414Z,93430.28
2023-02-23T22:29:01.052Z,93421.84
2023-02-23T22:31:28.311Z,93431.59
2023-02-23T22:33:54.883Z,93402.44
2023-02-23T22:36:21.256Z,93379.66
2023-02-23T22:38:47.638Z,93401.72
2023-02-23T22:41:14.215Z,93388.63
2023-02-23T22:43:47.589Z,93379.84
2023-02-23T22:46:16.189Z,93416.66
2023-02-23T22:48:44.929Z,93409.88
2023-02-23T22:51:14.282Z,93378.91
2023-02-23T22:53:40.780Z,93386.69
2023-02-23T22:56:08.433Z,93407.56
2023-02-23T22:58:36.251Z,93392.75
2023-02-23T23:01:06.282Z,93377.22
2023-02-23T23:03:41.549Z,93405.13
2023-02-23T23:06:10.557Z,93393.31
2023-02-23T23:08:42.463Z,93393.75
2023-02-23T23:11:18.955Z,93380.25
2023-02-23T23:13:50.736Z,93383.16
2023-02-23T23:16:31.622Z,93394.25
2023-02-23T23:19:02.491Z,93391.03
2023-02-23T23:21:31.813Z,93377.06
2023-02-23T23:24:01.216Z,93397.16
2023-02-23T23:26:28.985Z,93380.44
2023-02-23T23:28:58.421Z,93361.97
2023-02-23T23:31:30.443Z,93398.97
2023-02-23T23:34:00.186Z,93363.16
2023-02-23T23:36:37.275Z,93360.66
2023-02-23T23:39:06.233Z,93379.00
2023-02-23T23:41:35.315Z,93375.78
2023-02-23T23:44:05.144Z,93385.75
2023-02-23T23:46:35.529Z,93382.81
2023-02-23T23:49:08.105Z,93382.53
2023-02-23T23:51:44.633Z,93364.09
2023-02-23T23:54:13.899Z,93390.47
2023-02-23T23:56:41.088Z,93363.00
2023-02-23T23:59:11.058Z,93360.09
